sensor_id;sensor_type;location;lat;lon;timestamp;P1;durP1;ratioP1;P2;durP2;ratioP2
2187;SDS011;1100;52.014;8.540;2023-02-07T00:01:19;22.90;;;7.90;;
2187;SDS011;1100;52.014;8.540;2023-02-07T00:03:46;19.65;;;7.82;;
2187;SDS011;1100;52.014;8.540;2023-02-07T00:06:13;18.60;;;8.48;;
2187;SDS011;1100;52.014;8.540;2023-02-07T00:08:44;18.53;;;7.30;;
2187;SDS011;1100;52.014;8.540;2023-02-07T00:11:10;20.70;;;7.45;;
2187;SDS011;1100;52.014;8.540;2023-02-07T00:13:40;19.13;;;7.60;;
2187;SDS011;1100;52.014;8.540;2023-02-07T00:16:06;20.20;;;7.93;;
2187;SDS011;1100;52.014;8.540;2023-02-07T00:18:32;21.67;;;8.13;;
2187;SDS011;1100;52.014;8.540;2023-02-07T00:23:27;22.90;;;8.03;;
2187;SDS011;1100;52.014;8.540;2023-02-07T00:25:53;18.88;;;7.65;;
2187;SDS011;1100;52.014;8.540;2023-02-07T00:28:18;20.75;;;7.63;;
2187;SDS011;1100;52.014;8.540;2023-02-07T00:30:44;18.40;;;7.13;;
2187;SDS011;1100;52.014;8.540;2023-02-07T00:33:10;19.23;;;7.53;;
2187;SDS011;1100;52.014;8.540;2023-02-07T00:35:35;18.97;;;7.40;;
2187;SDS011;1100;52.014;8.540;2023-02-07T00:38:01;16.83;;;6.90;;
2187;SDS011;1100;52.014;8.540;2023-02-07T00:40:26;16.27;;;6.53;;
2187;SDS011;1100;52.014;8.540;2023-02-07T00:42:51;19.63;;;7.43;;
2187;SDS011;1100;52.014;8.540;2023-02-07T00:45:17;19.73;;;6.63;;
2187;SDS011;1100;52.014;8.540;2023-02-07T00:47:42;17.23;;;7.33;;
2187;SDS011;1100;52.014;8.540;2023-02-07T00:50:07;17.50;;;6.83;;
2187;SDS011;1100;52.014;8.540;2023-02-07T00:52:33;19.33;;;6.60;;
2187;SDS011;1100;52.014;8.540;2023-02-07T00:54:58;17.60;;;6.63;;
2187;SDS011;1100;52.014;8.540;2023-02-07T00:57:23;17.63;;;6.83;;
2187;SDS011;1100;52.014;8.540;2023-02-07T00:59:49;16.57;;;6.80;;
2187;SDS011;1100;52.014;8.540;2023-02-07T01:02:14;16.13;;;6.40;;
2187;SDS011;1100;52.014;8.540;2023-02-07T01:04:39;16.50;;;6.70;;
2187;SDS011;1100;52.014;8.540;2023-02-07T01:07:04;17.37;;;6.50;;
2187;SDS011;1100;52.014;8.540;2023-02-07T01:09:30;17.27;;;6.53;;
2187;SDS011;1100;52.014;8.540;2023-02-07T01:11:55;16.55;;;6.55;;
2187;SDS011;1100;52.014;8.540;2023-02-07T01:14:21;15.57;;;6.50;;
2187;SDS011;1100;52.014;8.540;2023-02-07T01:16:46;18.07;;;6.87;;
2187;SDS011;1100;52.014;8.540;2023-02-07T01:19:12;14.80;;;5.57;;
2187;SDS011;1100;52.014;8.540;2023-02-07T01:21:37;17.07;;;6.27;;
2187;SDS011;1100;52.014;8.540;2023-02-07T01:24:03;15.63;;;6.45;;
2187;SDS011;1100;52.014;8.540;2023-02-07T01:26:28;18.73;;;6.53;;
2187;SDS011;1100;52.014;8.540;2023-02-07T01:28:54;17.10;;;6.32;;
2187;SDS011;1100;52.014;8.540;2023-02-07T01:31:20;17.90;;;5.95;;
2187;SDS011;1100;52.014;8.540;2023-02-07T01:33:46;14.88;;;6.10;;
2187;SDS011;1100;52.014;8.540;2023-02-07T01:36:12;14.48;;;5.32;;
2187;SDS011;1100;52.014;8.540;2023-02-07T01:38:40;16.98;;;5.75;;
2187;SDS011;1100;52.014;8.540;2023-02-07T01:41:06;14.33;;;5.50;;
2187;SDS011;1100;52.014;8.540;2023-02-07T01:43:33;17.35;;;5.78;;
2187;SDS011;1100;52.014;8.540;2023-02-07T01:45:58;16.05;;;5.53;;
2187;SDS011;1100;52.014;8.540;2023-02-07T01:48:28;17.07;;;5.30;;
2187;SDS011;1100;52.014;8.540;2023-02-07T01:50:58;16.08;;;6.05;;
2187;SDS011;1100;52.014;8.540;2023-02-07T01:53:28;16.45;;;5.63;;
2187;SDS011;1100;52.014;8.540;2023-02-07T01:55:55;15.07;;;6.00;;
2187;SDS011;1100;52.014;8.540;2023-02-07T01:58:23;15.02;;;5.63;;
2187;SDS011;1100;52.014;8.540;2023-02-07T02:00:49;15.10;;;5.70;;
2187;SDS011;1100;52.014;8.540;2023-02-07T02:03:15;16.80;;;6.13;;
2187;SDS011;1100;52.014;8.540;2023-02-07T02:05:41;13.15;;;5.25;;
2187;SDS011;1100;52.014;8.540;2023-02-07T02:08:07;15.33;;;5.53;;
2187;SDS011;1100;52.014;8.540;2023-02-07T02:13:31;15.33;;;5.07;;
2187;SDS011;1100;52.014;8.540;2023-02-07T02:16:17;12.35;;;5.07;;
2187;SDS011;1100;52.014;8.540;2023-02-07T02:27:33;12.17;;;5.23;;
2187;SDS011;1100;52.014;8.540;2023-02-07T02:38:32;16.77;;;5.90;;
2187;SDS011;1100;52.014;8.540;2023-02-07T02:41:09;17.38;;;6.93;;
2187;SDS011;1100;52.014;8.540;2023-02-07T02:46:20;17.65;;;6.47;;
2187;SDS011;1100;52.014;8.540;2023-02-07T02:48:47;15.88;;;7.00;;
2187;SDS011;1100;52.014;8.540;2023-02-07T02:51:14;16.70;;;7.40;;
2187;SDS011;1100;52.014;8.540;2023-02-07T02:53:39;21.23;;;7.70;;
2187;SDS011;1100;52.014;8.540;2023-02-07T03:04:34;17.25;;;6.90;;
2187;SDS011;1100;52.014;8.540;2023-02-07T03:12:31;17.63;;;6.95;;
2187;SDS011;1100;52.014;8.540;2023-02-07T03:15:17;20.05;;;7.88;;
2187;SDS011;1100;52.014;8.540;2023-02-07T03:20:34;21.30;;;7.45;;
2187;SDS011;1100;52.014;8.540;2023-02-07T03:23:03;20.03;;;7.60;;
2187;SDS011;1100;52.014;8.540;2023-02-07T03:25:30;19.40;;;7.43;;
2187;SDS011;1100;52.014;8.540;2023-02-07T03:27:57;20.80;;;7.78;;
2187;SDS011;1100;52.014;8.540;2023-02-07T03:30:25;20.15;;;7.90;;
2187;SDS011;1100;52.014;8.540;2023-02-07T03:32:54;19.80;;;7.97;;
2187;SDS011;1100;52.014;8.540;2023-02-07T03:35:23;19.30;;;8.57;;
2187;SDS011;1100;52.014;8.540;2023-02-07T03:38:10;20.30;;;8.20;;
2187;SDS011;1100;52.014;8.540;2023-02-07T03:40:37;19.52;;;8.07;;
2187;SDS011;1100;52.014;8.540;2023-02-07T03:43:11;20.92;;;8.48;;
2187;SDS011;1100;52.014;8.540;2023-02-07T03:45:40;20.63;;;7.80;;
2187;SDS011;1100;52.014;8.540;2023-02-07T03:48:05;22.10;;;7.70;;
2187;SDS011;1100;52.014;8.540;2023-02-07T03:50:31;21.73;;;8.17;;
2187;SDS011;1100;52.014;8.540;2023-02-07T03:52:56;20.50;;;7.77;;
2187;SDS011;1100;52.014;8.540;2023-02-07T03:55:21;22.97;;;9.03;;
2187;SDS011;1100;52.014;8.540;2023-02-07T03:57:47;20.30;;;8.18;;
2187;SDS011;1100;52.014;8.540;2023-02-07T04:00:12;20.40;;;8.50;;
2187;SDS011;1100;52.014;8.540;2023-02-07T04:02:38;21.80;;;8.20;;
2187;SDS011;1100;52.014;8.540;2023-02-07T04:05:04;19.08;;;7.50;;
2187;SDS011;1100;52.014;8.540;2023-02-07T04:07:30;20.38;;;8.50;;
2187;SDS011;1100;52.014;8.540;2023-02-07T04:09:55;18.30;;;8.02;;
2187;SDS011;1100;52.014;8.540;2023-02-07T04:12:20;18.90;;;8.40;;
2187;SDS011;1100;52.014;8.540;2023-02-07T04:14:46;23.20;;;8.83;;
2187;SDS011;1100;52.014;8.540;2023-02-07T04:17:11;22.00;;;7.83;;
2187;SDS011;1100;52.014;8.540;2023-02-07T04:19:36;20.33;;;8.33;;
2187;SDS011;1100;52.014;8.540;2023-02-07T04:22:02;19.88;;;8.30;;
2187;SDS011;1100;52.014;8.540;2023-02-07T04:24:27;20.17;;;7.73;;
2187;SDS011;1100;52.014;8.540;2023-02-07T04:26:55;19.13;;;8.02;;
2187;SDS011;1100;52.014;8.540;2023-02-07T04:29:21;22.08;;;8.07;;
2187;SDS011;1100;52.014;8.540;2023-02-07T04:31:47;19.42;;;8.30;;
2187;SDS011;1100;52.014;8.540;2023-02-07T04:34:12;21.67;;;8.00;;
2187;SDS011;1100;52.014;8.540;2023-02-07T04:36:37;20.77;;;8.83;;
2187;SDS011;1100;52.014;8.540;2023-02-07T04:39:03;20.50;;;8.10;;
2187;SDS011;1100;52.014;8.540;2023-02-07T04:41:28;21.73;;;8.63;;
2187;SDS011;1100;52.014;8.540;2023-02-07T04:43:53;23.23;;;8.47;;
2187;SDS011;1100;52.014;8.540;2023-02-07T04:46:19;23.83;;;8.63;;
2187;SDS011;1100;52.014;8.540;2023-02-07T04:48:44;20.60;;;8.27;;
2187;SDS011;1100;52.014;8.540;2023-02-07T04:51:09;22.00;;;8.00;;
2187;SDS011;1100;52.014;8.540;2023-02-07T04:53:35;20.67;;;7.63;;
2187;SDS011;1100;52.014;8.540;2023-02-07T04:56:00;21.13;;;7.67;;
2187;SDS011;1100;52.014;8.540;2023-02-07T04:58:25;20.33;;;8.13;;
2187;SDS011;1100;52.014;8.540;2023-02-07T05:00:51;16.83;;;7.77;;
2187;SDS011;1100;52.014;8.540;2023-02-07T05:03:17;20.00;;;7.20;;
2187;SDS011;1100;52.014;8.540;2023-02-07T05:05:43;18.93;;;6.83;;
2187;SDS011;1100;52.014;8.540;2023-02-07T05:08:09;15.88;;;6.63;;
2187;SDS011;1100;52.014;8.540;2023-02-07T05:10:36;21.13;;;6.68;;
2187;SDS011;1100;52.014;8.540;2023-02-07T05:13:02;20.00;;;7.18;;
2187;SDS011;1100;52.014;8.540;2023-02-07T05:15:27;16.17;;;6.23;;
2187;SDS011;1100;52.014;8.540;2023-02-07T05:17:54;18.10;;;6.05;;
2187;SDS011;1100;52.014;8.540;2023-02-07T05:20:21;18.38;;;6.72;;
2187;SDS011;1100;52.014;8.540;2023-02-07T05:22:47;16.50;;;5.90;;
2187;SDS011;1100;52.014;8.540;2023-02-07T05:25:14;16.00;;;6.07;;
2187;SDS011;1100;52.014;8.540;2023-02-07T05:27:40;18.13;;;6.28;;
2187;SDS011;1100;52.014;8.540;2023-02-07T05:30:06;16.65;;;6.30;;
2187;SDS011;1100;52.014;8.540;2023-02-07T05:32:32;16.80;;;5.70;;
2187;SDS011;1100;52.014;8.540;2023-02-07T05:35:16;15.90;;;6.07;;
2187;SDS011;1100;52.014;8.540;2023-02-07T05:37:41;14.43;;;5.40;;
2187;SDS011;1100;52.014;8.540;2023-02-07T05:40:07;14.13;;;5.90;;
2187;SDS011;1100;52.014;8.540;2023-02-07T05:42:33;15.25;;;5.78;;
2187;SDS011;1100;52.014;8.540;2023-02-07T05:44:58;13.23;;;5.03;;
2187;SDS011;1100;52.014;8.540;2023-02-07T05:47:24;14.37;;;5.47;;
2187;SDS011;1100;52.014;8.540;2023-02-07T05:49:49;13.00;;;4.60;;
2187;SDS011;1100;52.014;8.540;2023-02-07T05:52:14;14.27;;;5.17;;
2187;SDS011;1100;52.014;8.540;2023-02-07T05:54:40;15.30;;;5.00;;
2187;SDS011;1100;52.014;8.540;2023-02-07T05:57:05;13.25;;;5.57;;
2187;SDS011;1100;52.014;8.540;2023-02-07T05:59:31;13.97;;;5.00;;
2187;SDS011;1100;52.014;8.540;2023-02-07T06:01:56;12.13;;;4.80;;
2187;SDS011;1100;52.014;8.540;2023-02-07T06:04:22;12.73;;;5.37;;
2187;SDS011;1100;52.014;8.540;2023-02-07T06:06:47;15.02;;;4.68;;
2187;SDS011;1100;52.014;8.540;2023-02-07T06:09:12;16.00;;;5.10;;
2187;SDS011;1100;52.014;8.540;2023-02-07T06:11:38;13.40;;;4.93;;
2187;SDS011;1100;52.014;8.540;2023-02-07T06:14:03;13.40;;;5.23;;
2187;SDS011;1100;52.014;8.540;2023-02-07T06:16:28;17.00;;;5.00;;
2187;SDS011;1100;52.014;8.540;2023-02-07T06:18:53;13.33;;;5.10;;
2187;SDS011;1100;52.014;8.540;2023-02-07T06:21:19;14.97;;;4.67;;
2187;SDS011;1100;52.014;8.540;2023-02-07T06:23:44;13.63;;;5.13;;
2187;SDS011;1100;52.014;8.540;2023-02-07T06:26:11;13.02;;;4.85;;
2187;SDS011;1100;52.014;8.540;2023-02-07T06:28:37;14.52;;;5.45;;
2187;SDS011;1100;52.014;8.540;2023-02-07T06:31:03;13.10;;;5.17;;
2187;SDS011;1100;52.014;8.540;2023-02-07T06:33:28;13.50;;;5.15;;
2187;SDS011;1100;52.014;8.540;2023-02-07T06:35:53;15.07;;;5.93;;
2187;SDS011;1100;52.014;8.540;2023-02-07T06:38:20;13.48;;;5.00;;
2187;SDS011;1100;52.014;8.540;2023-02-07T06:40:45;13.25;;;5.07;;
2187;SDS011;1100;52.014;8.540;2023-02-07T06:43:12;15.13;;;6.72;;
2187;SDS011;1100;52.014;8.540;2023-02-07T06:45:38;13.18;;;5.18;;
2187;SDS011;1100;52.014;8.540;2023-02-07T06:48:03;15.77;;;5.63;;
2187;SDS011;1100;52.014;8.540;2023-02-07T06:50:29;12.67;;;4.57;;
2187;SDS011;1100;52.014;8.540;2023-02-07T06:52:54;16.33;;;5.80;;
2187;SDS011;1100;52.014;8.540;2023-02-07T06:55:25;15.07;;;5.60;;
2187;SDS011;1100;52.014;8.540;2023-02-07T06:57:55;15.07;;;5.68;;
2187;SDS011;1100;52.014;8.540;2023-02-07T07:00:20;15.10;;;5.80;;
2187;SDS011;1100;52.014;8.540;2023-02-07T07:02:46;15.00;;;6.07;;
2187;SDS011;1100;52.014;8.540;2023-02-07T07:05:12;14.13;;;5.80;;
2187;SDS011;1100;52.014;8.540;2023-02-07T07:07:37;15.57;;;6.10;;
2187;SDS011;1100;52.014;8.540;2023-02-07T07:10:03;16.33;;;6.07;;
2187;SDS011;1100;52.014;8.540;2023-02-07T07:12:29;15.30;;;6.22;;
2187;SDS011;1100;52.014;8.540;2023-02-07T07:14:54;14.90;;;6.03;;
2187;SDS011;1100;52.014;8.540;2023-02-07T07:17:20;13.30;;;6.03;;
2187;SDS011;1100;52.014;8.540;2023-02-07T07:19:45;16.80;;;6.15;;
2187;SDS011;1100;52.014;8.540;2023-02-07T07:22:10;15.70;;;6.40;;
2187;SDS011;1100;52.014;8.540;2023-02-07T07:24:36;17.30;;;6.53;;
2187;SDS011;1100;52.014;8.540;2023-02-07T07:27:01;18.23;;;6.87;;
2187;SDS011;1100;52.014;8.540;2023-02-07T07:29:26;18.83;;;7.43;;
2187;SDS011;1100;52.014;8.540;2023-02-07T07:31:52;18.97;;;7.40;;
2187;SDS011;1100;52.014;8.540;2023-02-07T07:34:17;18.37;;;7.50;;
2187;SDS011;1100;52.014;8.540;2023-02-07T07:36:42;20.20;;;8.30;;
2187;SDS011;1100;52.014;8.540;2023-02-07T07:39:08;20.90;;;7.85;;
2187;SDS011;1100;52.014;8.540;2023-02-07T07:41:34;27.13;;;8.73;;
2187;SDS011;1100;52.014;8.540;2023-02-07T07:44:00;22.52;;;8.95;;
2187;SDS011;1100;52.014;8.540;2023-02-07T07:46:25;24.50;;;8.30;;
2187;SDS011;1100;52.014;8.540;2023-02-07T07:48:50;19.90;;;8.43;;
2187;SDS011;1100;52.014;8.540;2023-02-07T07:51:16;22.30;;;8.20;;
2187;SDS011;1100;52.014;8.540;2023-02-07T07:53:42;18.93;;;7.70;;
2187;SDS011;1100;52.014;8.540;2023-02-07T07:56:07;19.23;;;7.90;;
2187;SDS011;1100;52.014;8.540;2023-02-07T07:58:32;22.17;;;8.10;;
2187;SDS011;1100;52.014;8.540;2023-02-07T08:00:58;16.87;;;7.40;;
2187;SDS011;1100;52.014;8.540;2023-02-07T08:03:23;19.93;;;8.00;;
2187;SDS011;1100;52.014;8.540;2023-02-07T08:05:48;19.90;;;7.83;;
2187;SDS011;1100;52.014;8.540;2023-02-07T08:08:14;20.55;;;8.30;;
2187;SDS011;1100;52.014;8.540;2023-02-07T08:10:41;19.73;;;7.88;;
2187;SDS011;1100;52.014;8.540;2023-02-07T08:13:07;23.07;;;8.33;;
2187;SDS011;1100;52.014;8.540;2023-02-07T08:15:32;21.52;;;8.52;;
2187;SDS011;1100;52.014;8.540;2023-02-07T08:17:58;19.87;;;8.23;;
2187;SDS011;1100;52.014;8.540;2023-02-07T08:20:23;19.42;;;8.68;;
2187;SDS011;1100;52.014;8.540;2023-02-07T08:22:49;22.83;;;8.83;;
2187;SDS011;1100;52.014;8.540;2023-02-07T08:25:15;17.30;;;7.90;;
2187;SDS011;1100;52.014;8.540;2023-02-07T08:27:40;18.05;;;7.90;;
2187;SDS011;1100;52.014;8.540;2023-02-07T08:30:06;17.57;;;8.17;;
2187;SDS011;1100;52.014;8.540;2023-02-07T08:32:33;18.25;;;7.88;;
2187;SDS011;1100;52.014;8.540;2023-02-07T08:34:58;16.10;;;7.63;;
2187;SDS011;1100;52.014;8.540;2023-02-07T08:37:23;17.83;;;8.07;;
2187;SDS011;1100;52.014;8.540;2023-02-07T08:39:49;21.03;;;8.60;;
2187;SDS011;1100;52.014;8.540;2023-02-07T08:42:17;19.58;;;8.20;;
2187;SDS011;1100;52.014;8.540;2023-02-07T08:44:45;16.52;;;8.18;;
2187;SDS011;1100;52.014;8.540;2023-02-07T08:47:11;15.85;;;7.53;;
2187;SDS011;1100;52.014;8.540;2023-02-07T08:49:37;17.03;;;7.80;;
2187;SDS011;1100;52.014;8.540;2023-02-07T08:52:02;16.43;;;7.80;;
2187;SDS011;1100;52.014;8.540;2023-02-07T08:54:27;16.30;;;7.90;;
2187;SDS011;1100;52.014;8.540;2023-02-07T08:56:53;15.00;;;8.00;;
2187;SDS011;1100;52.014;8.540;2023-02-07T08:59:18;17.40;;;7.43;;
2187;SDS011;1100;52.014;8.540;2023-02-07T09:01:43;15.10;;;7.20;;
2187;SDS011;1100;52.014;8.540;2023-02-07T09:04:09;18.77;;;7.60;;
2187;SDS011;1100;52.014;8.540;2023-02-07T09:06:35;13.87;;;6.60;;
2187;SDS011;1100;52.014;8.540;2023-02-07T09:09:01;14.25;;;6.28;;
2187;SDS011;1100;52.014;8.540;2023-02-07T09:11:26;14.10;;;5.47;;
2187;SDS011;1100;52.014;8.540;2023-02-07T09:13:51;11.80;;;5.43;;
2187;SDS011;1100;52.014;8.540;2023-02-07T09:16:17;11.20;;;4.97;;
2187;SDS011;1100;52.014;8.540;2023-02-07T09:18:42;10.17;;;4.97;;
2187;SDS011;1100;52.014;8.540;2023-02-07T09:21:07;11.40;;;5.32;;
2187;SDS011;1100;52.014;8.540;2023-02-07T09:23:33;13.23;;;6.43;;
2187;SDS011;1100;52.014;8.540;2023-02-07T09:26:01;11.10;;;5.35;;
2187;SDS011;1100;52.014;8.540;2023-02-07T09:28:28;10.87;;;5.07;;
2187;SDS011;1100;52.014;8.540;2023-02-07T09:30:54;10.57;;;4.97;;
2187;SDS011;1100;52.014;8.540;2023-02-07T09:33:19;10.70;;;4.93;;
2187;SDS011;1100;52.014;8.540;2023-02-07T09:35:47;10.68;;;5.00;;
2187;SDS011;1100;52.014;8.540;2023-02-07T09:38:20;9.55;;;4.55;;
2187;SDS011;1100;52.014;8.540;2023-02-07T09:40:48;9.27;;;4.20;;
2187;SDS011;1100;52.014;8.540;2023-02-07T09:46:18;11.00;;;4.72;;
2187;SDS011;1100;52.014;8.540;2023-02-07T09:52:02;9.27;;;4.25;;
2187;SDS011;1100;52.014;8.540;2023-02-07T09:54:37;10.77;;;4.97;;
2187;SDS011;1100;52.014;8.540;2023-02-07T09:57:22;8.90;;;4.60;;
2187;SDS011;1100;52.014;8.540;2023-02-07T10:02:37;10.18;;;4.47;;
2187;SDS011;1100;52.014;8.540;2023-02-07T10:05:14;8.98;;;4.40;;
2187;SDS011;1100;52.014;8.540;2023-02-07T10:07:43;9.27;;;4.32;;
2187;SDS011;1100;52.014;8.540;2023-02-07T10:10:14;10.20;;;4.30;;
2187;SDS011;1100;52.014;8.540;2023-02-07T10:30:42;8.97;;;3.93;;
2187;SDS011;1100;52.014;8.540;2023-02-07T10:33:15;8.35;;;3.97;;
2187;SDS011;1100;52.014;8.540;2023-02-07T10:35:43;8.93;;;4.27;;
2187;SDS011;1100;52.014;8.540;2023-02-07T10:38:54;7.25;;;3.22;;
2187;SDS011;1100;52.014;8.540;2023-02-07T10:41:25;8.18;;;4.20;;
2187;SDS011;1100;52.014;8.540;2023-02-07T10:44:04;8.32;;;4.20;;
2187;SDS011;1100;52.014;8.540;2023-02-07T10:46:31;8.65;;;4.03;;
2187;SDS011;1100;52.014;8.540;2023-02-07T10:48:58;7.90;;;4.07;;
2187;SDS011;1100;52.014;8.540;2023-02-07T10:51:34;7.45;;;3.92;;
2187;SDS011;1100;52.014;8.540;2023-02-07T10:54:10;8.48;;;3.90;;
2187;SDS011;1100;52.014;8.540;2023-02-07T10:56:40;9.90;;;4.43;;
2187;SDS011;1100;52.014;8.540;2023-02-07T11:02:44;9.37;;;4.23;;
2187;SDS011;1100;52.014;8.540;2023-02-07T11:07:40;7.65;;;3.72;;
2187;SDS011;1100;52.014;8.540;2023-02-07T11:10:16;8.63;;;3.95;;
2187;SDS011;1100;52.014;8.540;2023-02-07T11:12:44;7.00;;;3.47;;
2187;SDS011;1100;52.014;8.540;2023-02-07T11:15:18;7.07;;;3.20;;
2187;SDS011;1100;52.014;8.540;2023-02-07T11:17:50;7.85;;;3.75;;
2187;SDS011;1100;52.014;8.540;2023-02-07T11:20:25;7.57;;;3.60;;
2187;SDS011;1100;52.014;8.540;2023-02-07T11:22:53;7.32;;;3.10;;
2187;SDS011;1100;52.014;8.540;2023-02-07T11:25:33;6.18;;;2.97;;
2187;SDS011;1100;52.014;8.540;2023-02-07T11:28:02;8.17;;;3.50;;
2187;SDS011;1100;52.014;8.540;2023-02-07T11:30:28;7.13;;;3.00;;
2187;SDS011;1100;52.014;8.540;2023-02-07T11:33:00;6.03;;;2.65;;
2187;SDS011;1100;52.014;8.540;2023-02-07T11:35:28;5.88;;;2.65;;
2187;SDS011;1100;52.014;8.540;2023-02-07T11:38:01;7.23;;;2.90;;
2187;SDS011;1100;52.014;8.540;2023-02-07T11:45:37;7.23;;;2.97;;
2187;SDS011;1100;52.014;8.540;2023-02-07T11:48:05;7.30;;;2.80;;
2187;SDS011;1100;52.014;8.540;2023-02-07T11:53:03;7.03;;;2.80;;
2187;SDS011;1100;52.014;8.540;2023-02-07T11:55:31;8.00;;;2.50;;
2187;SDS011;1100;52.014;8.540;2023-02-07T11:58:19;6.97;;;2.50;;
2187;SDS011;1100;52.014;8.540;2023-02-07T12:01:02;6.75;;;2.80;;
2187;SDS011;1100;52.014;8.540;2023-02-07T12:04:14;6.82;;;2.40;;
2187;SDS011;1100;52.014;8.540;2023-02-07T12:06:25;4.95;;;1.95;;
2187;SDS011;1100;52.014;8.540;2023-02-07T12:12:42;4.80;;;1.73;;
2187;SDS011;1100;52.014;8.540;2023-02-07T12:15:16;7.88;;;2.30;;
2187;SDS011;1100;52.014;8.540;2023-02-07T12:23:50;5.45;;;2.05;;
2187;SDS011;1100;52.014;8.540;2023-02-07T12:34:47;5.45;;;2.17;;
2187;SDS011;1100;52.014;8.540;2023-02-07T12:40:30;5.33;;;2.00;;
2187;SDS011;1100;52.014;8.540;2023-02-07T12:43:06;5.43;;;1.98;;
2187;SDS011;1100;52.014;8.540;2023-02-07T12:51:03;5.20;;;2.00;;
2187;SDS011;1100;52.014;8.540;2023-02-07T12:59:31;6.00;;;2.05;;
2187;SDS011;1100;52.014;8.540;2023-02-07T13:07:40;6.17;;;1.93;;
2187;SDS011;1100;52.014;8.540;2023-02-07T13:18:41;5.50;;;2.30;;
2187;SDS011;1100;52.014;8.540;2023-02-07T13:21:16;6.63;;;2.60;;
2187;SDS011;1100;52.014;8.540;2023-02-07T13:23:45;7.18;;;3.38;;
2187;SDS011;1100;52.014;8.540;2023-02-07T13:26:16;9.48;;;4.38;;
2187;SDS011;1100;52.014;8.540;2023-02-07T13:31:21;9.65;;;4.00;;
2187;SDS011;1100;52.014;8.540;2023-02-07T13:34:01;8.50;;;3.93;;
2187;SDS011;1100;52.014;8.540;2023-02-07T13:36:37;8.93;;;3.97;;
2187;SDS011;1100;52.014;8.540;2023-02-07T13:44:46;10.75;;;4.15;;
2187;SDS011;1100;52.014;8.540;2023-02-07T13:52:38;8.15;;;3.78;;
2187;SDS011;1100;52.014;8.540;2023-02-07T13:57:56;8.85;;;3.58;;
2187;SDS011;1100;52.014;8.540;2023-02-07T14:03:18;9.75;;;4.00;;
2187;SDS011;1100;52.014;8.540;2023-02-07T14:05:45;8.98;;;4.70;;
2187;SDS011;1100;52.014;8.540;2023-02-07T14:10:49;9.77;;;3.78;;
2187;SDS011;1100;52.014;8.540;2023-02-07T14:13:34;9.40;;;4.32;;
2187;SDS011;1100;52.014;8.540;2023-02-07T14:18:38;9.50;;;3.90;;
2187;SDS011;1100;52.014;8.540;2023-02-07T14:24:15;9.48;;;4.50;;
2187;SDS011;1100;52.014;8.540;2023-02-07T14:31:55;9.33;;;4.40;;
2187;SDS011;1100;52.014;8.540;2023-02-07T14:34:27;11.02;;;4.40;;
2187;SDS011;1100;52.014;8.540;2023-02-07T14:36:53;9.45;;;5.20;;
2187;SDS011;1100;52.014;8.540;2023-02-07T14:41:48;10.23;;;4.87;;
2187;SDS011;1100;52.014;8.540;2023-02-07T14:46:54;9.93;;;4.90;;
2187;SDS011;1100;52.014;8.540;2023-02-07T14:54:25;10.73;;;4.97;;
2187;SDS011;1100;52.014;8.540;2023-02-07T14:57:04;8.93;;;4.93;;
2187;SDS011;1100;52.014;8.540;2023-02-07T14:59:34;11.32;;;6.28;;
2187;SDS011;1100;52.014;8.540;2023-02-07T15:04:51;13.15;;;6.28;;
2187;SDS011;1100;52.014;8.540;2023-02-07T15:07:16;10.50;;;5.27;;
2187;SDS011;1100;52.014;8.540;2023-02-07T15:09:42;10.37;;;5.33;;
2187;SDS011;1100;52.014;8.540;2023-02-07T15:12:08;11.75;;;5.63;;
2187;SDS011;1100;52.014;8.540;2023-02-07T15:14:34;10.15;;;5.43;;
2187;SDS011;1100;52.014;8.540;2023-02-07T15:17:01;12.45;;;6.10;;
2187;SDS011;1100;52.014;8.540;2023-02-07T15:21:58;11.38;;;5.70;;
2187;SDS011;1100;52.014;8.540;2023-02-07T15:24:37;10.93;;;5.60;;
2187;SDS011;1100;52.014;8.540;2023-02-07T15:27:06;11.88;;;5.82;;
2187;SDS011;1100;52.014;8.540;2023-02-07T15:29:42;9.75;;;5.00;;
2187;SDS011;1100;52.014;8.540;2023-02-07T15:32:25;11.40;;;5.50;;
2187;SDS011;1100;52.014;8.540;2023-02-07T15:34:54;11.05;;;5.70;;
2187;SDS011;1100;52.014;8.540;2023-02-07T15:37:22;13.13;;;5.68;;
2187;SDS011;1100;52.014;8.540;2023-02-07T15:39:53;11.55;;;5.93;;
2187;SDS011;1100;52.014;8.540;2023-02-07T15:42:19;13.77;;;5.22;;
2187;SDS011;1100;52.014;8.540;2023-02-07T15:44:49;11.97;;;5.33;;
2187;SDS011;1100;52.014;8.540;2023-02-07T15:47:30;11.80;;;5.28;;
2187;SDS011;1100;52.014;8.540;2023-02-07T15:50:02;13.25;;;6.25;;
2187;SDS011;1100;52.014;8.540;2023-02-07T15:52:34;13.18;;;5.82;;
2187;SDS011;1100;52.014;8.540;2023-02-07T15:57:58;14.60;;;6.07;;
2187;SDS011;1100;52.014;8.540;2023-02-07T16:00:27;13.52;;;5.40;;
2187;SDS011;1100;52.014;8.540;2023-02-07T16:02:59;13.80;;;6.32;;
2187;SDS011;1100;52.014;8.540;2023-02-07T16:05:28;12.43;;;6.22;;
2187;SDS011;1100;52.014;8.540;2023-02-07T16:07:56;11.83;;;5.17;;
2187;SDS011;1100;52.014;8.540;2023-02-07T16:15:21;12.93;;;6.10;;
2187;SDS011;1100;52.014;8.540;2023-02-07T16:17:49;16.35;;;5.97;;
2187;SDS011;1100;52.014;8.540;2023-02-07T16:20:15;16.30;;;6.32;;
2187;SDS011;1100;52.014;8.540;2023-02-07T16:22:41;16.70;;;6.60;;
2187;SDS011;1100;52.014;8.540;2023-02-07T16:25:11;14.63;;;6.40;;
2187;SDS011;1100;52.014;8.540;2023-02-07T16:27:42;14.80;;;5.90;;
2187;SDS011;1100;52.014;8.540;2023-02-07T16:30:12;16.92;;;6.70;;
2187;SDS011;1100;52.014;8.540;2023-02-07T16:32:39;16.10;;;7.25;;
2187;SDS011;1100;52.014;8.540;2023-02-07T16:35:26;13.83;;;6.40;;
2187;SDS011;1100;52.014;8.540;2023-02-07T16:37:51;18.25;;;7.25;;
2187;SDS011;1100;52.014;8.540;2023-02-07T16:40:18;16.27;;;6.97;;
2187;SDS011;1100;52.014;8.540;2023-02-07T16:42:44;15.52;;;6.78;;
2187;SDS011;1100;52.014;8.540;2023-02-07T16:45:14;15.82;;;7.05;;
2187;SDS011;1100;52.014;8.540;2023-02-07T16:47:44;17.83;;;7.18;;
2187;SDS011;1100;52.014;8.540;2023-02-07T16:50:14;16.87;;;7.67;;
2187;SDS011;1100;52.014;8.540;2023-02-07T16:52:41;15.60;;;7.05;;
2187;SDS011;1100;52.014;8.540;2023-02-07T16:55:06;15.93;;;6.70;;
2187;SDS011;1100;52.014;8.540;2023-02-07T16:57:31;16.87;;;7.10;;
2187;SDS011;1100;52.014;8.540;2023-02-07T16:59:57;17.55;;;7.40;;
2187;SDS011;1100;52.014;8.540;2023-02-07T17:02:23;17.20;;;7.40;;
2187;SDS011;1100;52.014;8.540;2023-02-07T17:04:48;19.30;;;8.13;;
2187;SDS011;1100;52.014;8.540;2023-02-07T17:07:13;17.33;;;6.97;;
2187;SDS011;1100;52.014;8.540;2023-02-07T17:09:40;17.77;;;7.35;;
2187;SDS011;1100;52.014;8.540;2023-02-07T17:12:07;18.27;;;8.10;;
2187;SDS011;1100;52.014;8.540;2023-02-07T17:14:33;16.90;;;7.22;;
2187;SDS011;1100;52.014;8.540;2023-02-07T17:17:00;16.08;;;6.95;;
2187;SDS011;1100;52.014;8.540;2023-02-07T17:19:25;19.20;;;7.70;;
2187;SDS011;1100;52.014;8.540;2023-02-07T17:21:52;16.80;;;7.38;;
2187;SDS011;1100;52.014;8.540;2023-02-07T17:24:18;20.13;;;7.22;;
2187;SDS011;1100;52.014;8.540;2023-02-07T17:26:45;17.73;;;7.57;;
2187;SDS011;1100;52.014;8.540;2023-02-07T17:29:13;16.52;;;6.85;;
2187;SDS011;1100;52.014;8.540;2023-02-07T17:31:39;18.00;;;7.80;;
2187;SDS011;1100;52.014;8.540;2023-02-07T17:34:06;19.17;;;7.10;;
2187;SDS011;1100;52.014;8.540;2023-02-07T17:36:31;17.55;;;7.55;;
2187;SDS011;1100;52.014;8.540;2023-02-07T17:38:58;18.58;;;7.60;;
2187;SDS011;1100;52.014;8.540;2023-02-07T17:41:24;17.03;;;7.90;;
2187;SDS011;1100;52.014;8.540;2023-02-07T17:43:50;30.52;;;11.40;;
2187;SDS011;1100;52.014;8.540;2023-02-07T17:46:17;23.08;;;9.45;;
2187;SDS011;1100;52.014;8.540;2023-02-07T17:48:44;23.07;;;10.13;;
2187;SDS011;1100;52.014;8.540;2023-02-07T17:51:12;23.08;;;9.60;;
2187;SDS011;1100;52.014;8.540;2023-02-07T17:53:41;25.50;;;10.07;;
2187;SDS011;1100;52.014;8.540;2023-02-07T17:56:08;26.53;;;10.23;;
2187;SDS011;1100;52.014;8.540;2023-02-07T17:58:41;24.00;;;10.45;;
2187;SDS011;1100;52.014;8.540;2023-02-07T18:01:06;24.57;;;9.77;;
2187;SDS011;1100;52.014;8.540;2023-02-07T18:03:31;20.47;;;9.13;;
2187;SDS011;1100;52.014;8.540;2023-02-07T18:05:57;23.87;;;9.17;;
2187;SDS011;1100;52.014;8.540;2023-02-07T18:08:22;22.93;;;10.10;;
2187;SDS011;1100;52.014;8.540;2023-02-07T18:10:48;23.75;;;9.52;;
2187;SDS011;1100;52.014;8.540;2023-02-07T18:13:13;22.20;;;8.97;;